This is the latest recevied weather packets stored in our database for station/object DB0HRC-6. If no packets are shown the sender has not sent any weather packets the latest 10 day(s).
| Time | Temp. | Humidity | Pressure | Rain* | Wind** | Luminosity | Snow |
|---|---|---|---|---|---|---|---|
| 1777275005 | 10° C | 57% | 1020.8 hPa | 0 mm | - | - | - |
| 1777274105 | 9.44° C | 60% | 1020.8 hPa | 0 mm | - | - | - |
| 1777273204 | 8.89° C | 61% | 1020.7 hPa | 0 mm | - | - | - |
| 1777272306 | 7.22° C | 64% | 1020.7 hPa | 0 mm | - | - | - |
| 1777271406 | 6.11° C | 72% | 1020.6 hPa | 0 mm | - | - | - |
| 1777270506 | 5.56° C | 73% | 1020.7 hPa | 0 mm | - | - | - |
| 1777269605 | 4.44° C | 77% | 1020.6 hPa | 0 mm | - | - | - |
| 1777268705 | 3.33° C | 79% | 1020.6 hPa | 0 mm | - | - | - |
| 1777267805 | 2.78° C | 82% | 1020.4 hPa | 0 mm | - | - | - |
| 1777266905 | 2.22° C | 83% | 1020.5 hPa | 0 mm | - | - | - |
| 1777266005 | 1.11° C | 83% | 1020.6 hPa | 0 mm | - | - | - |
| 1777265104 | 1.11° C | 83% | 1020.6 hPa | 0 mm | - | - | - |
| 1777264204 | 1.11° C | 83% | 1020.3 hPa | 0 mm | - | - | - |
| 1777263305 | 0.56° C | 84% | 1020.1 hPa | 0 mm | - | - | - |
| 1777262404 | 0° C | 85% | 1020.1 hPa | 0 mm | - | - | - |
| 1777261504 | 0.56° C | 84% | 1020 hPa | 0 mm | - | - | - |
| 1777260605 | 0.56° C | 83% | 1020 hPa | 0 mm | - | - | - |
| 1777259705 | 0.56° C | 83% | 1020.1 hPa | 0 mm | - | - | - |
| 1777258805 | 1.11° C | 82% | 1020 hPa | 0 mm | - | - | - |
| 1777257905 | 1.11° C | 82% | 1020.1 hPa | 0 mm | - | - | - |
| 1777257006 | 1.11° C | 81% | 1020.2 hPa | 0 mm | - | - | - |
| 1777256105 | 1.67° C | 82% | 1020.3 hPa | 0 mm | - | - | - |
| 1777255205 | 1.11° C | 82% | 1020.4 hPa | 0 mm | - | - | - |
| 1777254305 | 1.67° C | 81% | 1020.2 hPa | 0 mm | - | - | - |
| 1777253405 | 1.67° C | 80% | 1020.3 hPa | 0 mm | - | - | - |
* Rain latest hour (hover to see other rain measurements)
** Current wind speed in m/s (hover to see current wind gust speed)